Time;durP1;ratioP1;P1;durP2;ratioP2;P2;SDS_P1;SDS_P2;PMS_P1;PMS_P2;Temp;Humidity;BMP_temperature;BMP_pressure;BME280_temperature;BME280_humidity;BME280_pressure;Samples;Min_cycle;Max_cycle;Signal;HPM_P1;HPM_P2
2021/01/08 00:00:05;;;;;;;21.83;12.30;;;2.50;93.50;;;;;;6219936;23;20004;-85
2021/01/08 00:02:30;;;;;;;20.50;12.53;;;2.60;93.80;;;;;;6246962;23;20008;-86
2021/01/08 00:04:56;;;;;;;21.60;12.47;;;2.60;93.60;;;;;;6219814;23;20423;-85
2021/01/08 00:07:22;;;;;;;22.93;12.77;;;2.60;93.50;;;;;;6220319;23;20014;-85
2021/01/08 00:09:47;;;;;;;21.57;12.67;;;2.60;93.50;;;;;;6245568;23;20008;-85
2021/01/08 00:12:13;;;;;;;22.73;13.20;;;2.60;93.60;;;;;;6219913;23;20092;-86
2021/01/08 00:14:38;;;;;;;22.07;13.07;;;2.60;93.50;;;;;;6244646;22;19996;-86
2021/01/08 00:17:04;;;;;;;21.20;12.60;;;2.60;93.40;;;;;;6219445;23;20058;-86
2021/01/08 00:19:30;;;;;;;20.80;12.80;;;2.60;93.20;;;;;;6245400;23;20023;-86
2021/01/08 00:21:55;;;;;;;20.53;12.40;;;2.70;93.40;;;;;;6244545;23;20445;-86
2021/01/08 00:24:21;;;;;;;19.67;11.50;;;2.70;93.20;;;;;;6219313;23;20342;-86
2021/01/08 00:26:48;;;;;;;19.97;12.53;;;2.70;93.10;;;;;;6244661;22;20024;-85
2021/01/08 00:29:16;;;;;;;21.90;13.13;;;2.60;93.10;;;;;;6217972;23;20008;-85
2021/01/08 00:31:47;;;;;;;20.53;12.43;;;2.60;93.40;;;;;;6218671;23;20063;-86
2021/01/08 00:34:18;;;;;;;23.60;13.53;;;2.70;93.30;;;;;;6218633;23;20001;-86
2021/01/08 00:36:48;;;;;;;21.37;13.07;;;2.60;93.20;;;;;;6245599;22;20004;-86
2021/01/08 00:39:14;;;;;;;20.23;12.80;;;2.60;93.30;;;;;;6217966;23;20008;-85
2021/01/08 00:41:42;;;;;;;23.50;13.57;;;2.70;93.30;;;;;;6219962;23;20046;-87
2021/01/08 00:44:08;;;;;;;22.00;12.90;;;2.70;93.10;;;;;;6230878;23;20004;-85
2021/01/08 00:46:39;;;;;;;21.47;12.83;;;2.70;93.00;;;;;;6230539;23;20012;-86
2021/01/08 00:49:06;;;;;;;20.67;12.93;;;2.80;93.10;;;;;;6230439;23;20004;-85
2021/01/08 00:51:36;;;;;;;22.33;13.00;;;2.80;93.20;;;;;;6230946;23;20015;-87
2021/01/08 00:54:03;;;;;;;20.47;12.27;;;2.80;93.10;;;;;;6258274;23;19996;-87
2021/01/08 00:56:29;;;;;;;21.00;12.53;;;2.80;93.00;;;;;;6231207;23;20083;-85
2021/01/08 00:58:55;;;;;;;20.27;12.87;;;2.80;93.10;;;;;;6230370;23;20343;-87
2021/01/08 01:01:21;;;;;;;20.90;12.87;;;2.70;93.00;;;;;;6257558;23;20008;-85
2021/01/08 01:03:48;;;;;;;20.50;12.43;;;2.80;93.00;;;;;;6230079;23;20020;-87
2021/01/08 01:06:28;;;;;;;20.77;12.73;;;2.70;93.00;;;;;;6231202;23;20004;-88
2021/01/08 01:08:55;;;;;;;21.27;12.97;;;2.70;93.20;;;;;;6257006;23;20015;-86
2021/01/08 01:11:23;;;;;;;21.30;12.97;;;2.70;93.30;;;;;;6257293;23;20062;-86
2021/01/08 01:13:50;;;;;;;22.03;12.77;;;2.60;93.20;;;;;;6255780;22;20000;-87
2021/01/08 01:16:22;;;;;;;21.23;13.23;;;2.60;93.40;;;;;;6229806;23;20000;-87
2021/01/08 01:18:49;;;;;;;22.20;13.37;;;2.70;93.30;;;;;;6229841;23;20000;-88
2021/01/08 01:21:14;;;;;;;22.40;13.33;;;2.70;93.30;;;;;;6256696;23;20000;-87
2021/01/08 01:23:40;;;;;;;23.17;13.57;;;2.80;93.30;;;;;;6229585;23;20095;-87
2021/01/08 01:26:07;;;;;;;23.00;13.90;;;2.90;93.20;;;;;;6248712;22;20004;-86
2021/01/08 01:28:33;;;;;;;23.27;13.80;;;2.90;93.10;;;;;;6218717;23;20004;-86
2021/01/08 01:30:59;;;;;;;21.40;13.17;;;2.90;93.00;;;;;;6218322;23;20011;-86
2021/01/08 01:33:25;;;;;;;22.37;13.83;;;2.90;92.90;;;;;;6218997;23;20001;-86
2021/01/08 01:35:52;;;;;;;20.13;12.93;;;2.80;92.80;;;;;;6218966;23;20030;-86
2021/01/08 01:38:17;;;;;;;20.20;13.93;;;2.80;93.10;;;;;;6246244;23;20008;-86
2021/01/08 01:40:43;;;;;;;20.67;14.07;;;2.80;93.10;;;;;;6244472;23;20004;-86
2021/01/08 01:43:09;;;;;;;19.27;13.80;;;2.90;93.20;;;;;;6219781;23;20035;-86
2021/01/08 01:45:34;;;;;;;21.07;13.77;;;2.80;92.80;;;;;;6241673;23;20000;-86
2021/01/08 01:48:00;;;;;;;18.27;13.17;;;2.90;93.20;;;;;;6244801;23;20272;-86
2021/01/08 01:50:26;;;;;;;19.40;12.23;;;2.80;92.90;;;;;;6270194;23;20016;-85
2021/01/08 01:52:53;;;;;;;16.30;11.70;;;2.70;93.10;;;;;;6271010;22;20023;-86
2021/01/08 01:55:21;;;;;;;17.07;12.00;;;2.70;93.30;;;;;;6270323;22;20035;-86
2021/01/08 01:57:48;;;;;;;18.40;12.07;;;2.70;93.10;;;;;;6243950;23;20008;-86
2021/01/08 02:00:14;;;;;;;16.60;11.87;;;2.60;93.30;;;;;;6248644;23;20000;-86
2021/01/08 02:02:44;;;;;;;17.03;11.40;;;2.60;93.60;;;;;;6218194;23;20058;-86
2021/01/08 02:05:13;;;;;;;18.17;12.20;;;2.60;93.50;;;;;;6245062;22;20000;-86
2021/01/08 02:07:48;;;;;;;19.15;12.27;;;2.60;93.70;;;;;;6218355;23;20477;-86
2021/01/08 02:10:15;;;;;;;16.97;11.80;;;2.60;93.60;;;;;;6244329;23;20055;-86
2021/01/08 02:12:44;;;;;;;17.67;12.20;;;2.60;93.70;;;;;;6217706;23;20008;-86
2021/01/08 02:15:10;;;;;;;18.77;11.88;;;2.60;93.80;;;;;;6244920;22;20020;-86
2021/01/08 02:17:36;;;;;;;17.80;11.43;;;2.50;93.70;;;;;;6218026;23;20007;-86
2021/01/08 02:20:05;;;;;;;18.50;11.23;;;2.50;93.80;;;;;;6244338;23;20009;-86
2021/01/08 02:22:52;;;;;;;16.42;11.55;;;2.60;93.80;;;;;;6217739;23;20008;-86
2021/01/08 02:25:24;;;;;;;16.23;10.50;;;2.70;93.80;;;;;;6243022;23;20451;-86
2021/01/08 02:28:05;;;;;;;18.27;11.87;;;2.70;93.80;;;;;;6217614;23;20343;-86
2021/01/08 02:30:32;;;;;;;20.97;11.60;;;2.80;93.60;;;;;;6242422;23;20008;-86
2021/01/08 02:32:58;;;;;;;19.67;12.07;;;2.80;93.60;;;;;;6244627;23;19993;-86
2021/01/08 02:35:25;;;;;;;21.67;11.67;;;2.70;93.90;;;;;;6244838;22;19996;-87
2021/01/08 02:37:51;;;;;;;19.50;11.30;;;2.80;93.80;;;;;;6217909;23;20032;-86
2021/01/08 02:40:17;;;;;;;19.40;11.33;;;2.70;93.80;;;;;;6217230;23;20378;-86
2021/01/08 02:42:45;;;;;;;20.03;11.47;;;2.70;94.00;;;;;;6243027;23;20012;-86
2021/01/08 02:45:12;;;;;;;20.07;11.70;;;2.70;93.70;;;;;;6217487;23;20004;-86
2021/01/08 02:47:37;;;;;;;22.53;11.43;;;2.70;93.80;;;;;;6217898;23;20004;-86
2021/01/08 02:50:04;;;;;;;22.70;11.70;;;2.70;93.80;;;;;;6217137;23;20015;-86
2021/01/08 02:52:32;;;;;;;20.73;11.57;;;2.60;94.00;;;;;;6217966;23;20000;-86
2021/01/08 02:55:02;;;;;;;20.60;11.50;;;2.60;94.20;;;;;;6242801;23;20058;-86
2021/01/08 02:57:28;;;;;;;20.27;11.63;;;2.60;94.10;;;;;;6242967;22;20001;-86
2021/01/08 02:59:56;;;;;;;22.00;11.57;;;2.70;93.80;;;;;;6216934;23;20390;-86
2021/01/08 03:02:23;;;;;;;21.47;11.63;;;2.70;94.00;;;;;;6243056;23;20004;-86
2021/01/08 03:04:49;;;;;;;20.30;11.63;;;2.70;93.90;;;;;;6217750;22;20004;-86
2021/01/08 03:07:21;;;;;;;21.03;11.83;;;2.80;93.90;;;;;;6217883;23;20004;-86
2021/01/08 03:09:47;;;;;;;20.47;11.83;;;2.70;93.90;;;;;;6242475;23;20007;-86
2021/01/08 03:12:14;;;;;;;20.57;11.57;;;2.70;93.70;;;;;;6243903;23;20494;-86
2021/01/08 03:14:43;;;;;;;23.50;12.10;;;2.70;93.80;;;;;;6216177;22;20483;-86
2021/01/08 03:17:09;;;;;;;20.70;11.70;;;2.70;94.00;;;;;;6244972;23;20000;-87
2021/01/08 03:19:34;;;;;;;22.33;12.73;;;2.70;93.90;;;;;;6227349;23;20000;-85
2021/01/08 03:22:00;;;;;;;23.50;12.30;;;2.70;93.90;;;;;;6227082;23;20000;-85
2021/01/08 03:24:26;;;;;;;23.90;12.27;;;2.60;93.90;;;;;;6226440;23;20335;-85
2021/01/08 03:26:51;;;;;;;22.40;12.33;;;2.70;94.00;;;;;;6253393;22;20050;-87
2021/01/08 03:29:17;;;;;;;25.53;12.70;;;2.70;93.60;;;;;;6253795;23;20000;-87
2021/01/08 03:31:42;;;;;;;24.00;12.87;;;2.70;94.20;;;;;;6253292;23;20011;-85
2021/01/08 03:34:08;;;;;;;23.73;12.47;;;2.70;94.00;;;;;;6254632;23;20004;-85
2021/01/08 03:36:34;;;;;;;24.73;12.57;;;2.70;93.80;;;;;;6231169;23;20001;-88
2021/01/08 03:38:59;;;;;;;21.57;11.93;;;2.70;93.70;;;;;;6238555;23;20014;-87
2021/01/08 03:41:25;;;;;;;20.77;11.10;;;2.70;93.70;;;;;;6265536;23;20025;-87
2021/01/08 03:43:50;;;;;;;20.10;11.30;;;2.70;93.70;;;;;;6234161;23;20015;-87
2021/01/08 03:46:16;;;;;;;18.83;11.07;;;2.70;93.90;;;;;;6231678;23;20011;-88
2021/01/08 03:48:42;;;;;;;17.33;9.97;;;2.80;94.00;;;;;;6231340;23;20011;-87
2021/01/08 03:51:08;;;;;;;18.23;10.83;;;2.80;93.80;;;;;;6229943;23;20008;-87
2021/01/08 03:53:33;;;;;;;20.90;11.37;;;2.80;93.50;;;;;;6230701;23;20031;-86
2021/01/08 03:55:59;;;;;;;19.13;10.77;;;2.70;93.60;;;;;;6231724;23;20000;-87
2021/01/08 03:58:25;;;;;;;20.40;11.13;;;2.70;93.90;;;;;;6231300;23;20028;-87
2021/01/08 04:00:50;;;;;;;21.73;11.90;;;2.80;93.70;;;;;;6231125;23;20034;-87
2021/01/08 04:03:16;;;;;;;21.33;11.80;;;2.80;93.60;;;;;;6257720;23;20488;-86
2021/01/08 04:05:41;;;;;;;22.90;12.63;;;2.70;93.70;;;;;;6230761;23;20008;-86
2021/01/08 04:08:07;;;;;;;19.83;11.37;;;2.70;93.90;;;;;;6231215;23;20014;-86
2021/01/08 04:10:33;;;;;;;23.97;13.90;;;2.80;93.90;;;;;;6230179;23;20004;-87
2021/01/08 04:12:58;;;;;;;24.93;13.53;;;2.80;93.80;;;;;;6257575;23;19996;-87
2021/01/08 04:15:24;;;;;;;25.63;13.87;;;2.80;93.60;;;;;;6230842;23;20016;-87
2021/01/08 04:17:49;;;;;;;23.40;12.83;;;2.70;93.60;;;;;;6230765;23;20343;-86
2021/01/08 04:20:15;;;;;;;22.13;12.57;;;2.70;93.80;;;;;;6230392;23;20004;-86
2021/01/08 04:22:41;;;;;;;21.90;12.33;;;2.70;93.70;;;;;;6230530;23;20498;-87
2021/01/08 04:25:07;;;;;;;19.90;11.73;;;2.70;93.60;;;;;;6230494;23;20008;-88
2021/01/08 04:27:32;;;;;;;23.57;12.70;;;2.60;93.70;;;;;;6257349;23;20004;-87
2021/01/08 04:29:58;;;;;;;21.77;12.67;;;2.60;94.10;;;;;;6229296;23;20093;-86
2021/01/08 04:32:23;;;;;;;21.33;11.93;;;2.70;94.00;;;;;;6257683;23;20449;-85
2021/01/08 04:34:49;;;;;;;20.30;11.17;;;2.60;93.80;;;;;;6230162;22;20004;-86
2021/01/08 04:37:14;;;;;;;21.33;12.20;;;2.60;93.90;;;;;;6230190;23;20378;-87
2021/01/08 04:39:40;;;;;;;23.80;12.60;;;2.70;93.90;;;;;;6256542;23;20007;-85
2021/01/08 04:42:06;;;;;;;23.93;12.87;;;2.60;94.20;;;;;;6231156;23;20050;-87
2021/01/08 04:44:32;;;;;;;20.87;11.43;;;2.70;93.90;;;;;;6229478;22;20004;-85
2021/01/08 04:46:58;;;;;;;22.47;11.63;;;2.60;94.10;;;;;;6229634;23;20063;-85
2021/01/08 04:49:24;;;;;;;19.87;11.23;;;2.70;93.70;;;;;;6229276;23;20007;-85
2021/01/08 04:51:51;;;;;;;18.77;10.97;;;2.70;93.70;;;;;;6228760;23;20008;-86
2021/01/08 04:54:17;;;;;;;18.97;10.23;;;2.70;93.80;;;;;;6254701;23;20012;-86
2021/01/08 04:56:45;;;;;;;17.97;10.83;;;2.70;93.80;;;;;;6229144;23;20000;-86
2021/01/08 04:59:11;;;;;;;19.53;9.53;;;2.70;93.80;;;;;;6228654;23;20030;-87
2021/01/08 05:01:37;;;;;;;14.60;8.40;;;2.70;93.80;;;;;;6229524;23;20011;-87
2021/01/08 05:04:03;;;;;;;13.77;8.50;;;2.70;93.60;;;;;;6229235;23;20059;-87
2021/01/08 05:06:30;;;;;;;15.03;9.17;;;2.70;93.70;;;;;;6228657;23;20015;-87
2021/01/08 05:08:56;;;;;;;18.10;9.37;;;2.80;93.80;;;;;;6228225;23;20004;-85
2021/01/08 05:11:24;;;;;;;15.90;9.30;;;2.70;93.80;;;;;;6229082;23;20010;-87
2021/01/08 05:14:01;;;;;;;14.73;8.60;;;2.70;93.60;;;;;;6229360;23;20001;-87
2021/01/08 05:16:30;;;;;;;14.93;9.10;;;2.70;93.80;;;;;;6255890;22;19996;-84
2021/01/08 05:18:58;;;;;;;16.48;9.07;;;2.70;94.10;;;;;;6227821;23;20027;-85
2021/01/08 05:21:26;;;;;;;16.43;8.73;;;2.70;94.10;;;;;;6228647;23;20349;-85
2021/01/08 05:23:53;;;;;;;16.20;8.17;;;2.70;93.60;;;;;;6228278;23;20488;-85
2021/01/08 05:26:20;;;;;;;12.97;7.70;;;2.70;94.00;;;;;;6221902;23;20320;-86
2021/01/08 05:28:57;;;;;;;13.67;8.30;;;2.80;94.00;;;;;;6218054;23;20015;-85
2021/01/08 05:31:25;;;;;;;14.23;8.60;;;2.80;93.90;;;;;;6218154;23;20008;-86
2021/01/08 05:33:52;;;;;;;14.50;8.63;;;2.80;93.90;;;;;;6245014;23;20032;-86
2021/01/08 05:36:19;;;;;;;14.00;7.97;;;2.80;93.90;;;;;;6217869;23;20004;-86
2021/01/08 05:38:47;;;;;;;14.53;8.53;;;2.80;93.80;;;;;;6245322;23;20000;-86
2021/01/08 05:41:12;;;;;;;14.50;8.47;;;2.80;93.80;;;;;;6217831;23;20008;-86
2021/01/08 05:43:43;;;;;;;15.83;7.63;;;2.90;93.70;;;;;;6218244;23;20342;-86
2021/01/08 05:46:14;;;;;;;16.43;8.37;;;2.90;93.60;;;;;;6218164;23;20470;-86
2021/01/08 05:49:01;;;;;;;12.27;6.93;;;2.90;93.60;;;;;;6218219;23;20033;-86
2021/01/08 05:51:30;;;;;;;13.27;7.27;;;2.90;93.60;;;;;;6217737;23;20004;-85
2021/01/08 05:54:00;;;;;;;11.65;6.90;;;2.90;93.50;;;;;;6218533;23;20316;-86
2021/01/08 05:56:26;;;;;;;13.47;6.80;;;2.90;93.70;;;;;;6218640;23;19996;-86
2021/01/08 05:58:53;;;;;;;13.57;7.03;;;2.90;93.60;;;;;;6245266;23;20054;-87
2021/01/08 06:01:19;;;;;;;11.80;6.63;;;2.90;93.30;;;;;;6218468;23;20087;-86
2021/01/08 06:03:45;;;;;;;13.53;6.70;;;2.90;93.60;;;;;;6218798;23;20035;-86
2021/01/08 06:06:12;;;;;;;13.30;7.20;;;2.90;93.60;;;;;;6218408;23;20012;-85
2021/01/08 06:08:49;;;;;;;11.67;6.67;;;3.00;93.70;;;;;;6218620;23;20056;-86
2021/01/08 06:11:30;;;;;;;10.90;5.70;;;2.90;93.50;;;;;;6245328;23;20012;-86
2021/01/08 06:14:00;;;;;;;12.10;6.27;;;3.00;93.30;;;;;;6245355;23;20000;-86
2021/01/08 06:16:35;;;;;;;9.57;5.90;;;3.00;93.40;;;;;;6245771;22;19996;-86
2021/01/08 06:19:03;;;;;;;9.50;5.37;;;3.00;93.30;;;;;;6218628;23;20031;-86
2021/01/08 06:21:37;;;;;;;8.53;4.73;;;2.90;93.80;;;;;;6245302;23;20491;-85
2021/01/08 06:24:04;;;;;;;10.10;5.30;;;2.90;93.50;;;;;;6218609;23;20008;-86
2021/01/08 06:26:30;;;;;;;11.00;5.33;;;2.90;93.30;;;;;;6218221;23;20066;-85
2021/01/08 06:29:10;;;;;;;10.13;5.60;;;2.90;93.50;;;;;;6218503;23;20057;-86
2021/01/08 06:31:47;;;;;;;9.07;5.40;;;2.90;93.70;;;;;;6218614;23;20004;-86
2021/01/08 06:34:20;;;;;;;9.93;5.30;;;2.90;93.70;;;;;;6218268;23;20008;-85
2021/01/08 06:36:46;;;;;;;11.70;5.40;;;3.00;93.50;;;;;;6218518;23;20438;-86
2021/01/08 06:39:21;;;;;;;9.70;5.37;;;2.90;93.40;;;;;;6218520;23;20438;-86
2021/01/08 06:41:52;;;;;;;11.13;5.37;;;2.90;93.40;;;;;;6218542;23;20036;-85
2021/01/08 06:44:23;;;;;;;9.93;5.40;;;2.90;93.40;;;;;;6245974;23;20008;-85
2021/01/08 06:46:52;;;;;;;10.23;5.40;;;2.90;93.40;;;;;;6244919;22;20384;-85
2021/01/08 06:49:19;;;;;;;11.20;5.20;;;2.90;93.40;;;;;;6245300;23;20051;-85
2021/01/08 06:51:45;;;;;;;9.40;5.27;;;2.90;93.50;;;;;;6218225;23;20000;-86
2021/01/08 06:54:12;;;;;;;11.07;5.37;;;2.90;93.60;;;;;;6219131;23;20006;-86
2021/01/08 06:56:40;;;;;;;16.20;8.10;;;2.90;93.60;;;;;;6246104;22;20003;-87
2021/01/08 06:59:11;;;;;;;10.77;5.93;;;2.90;93.40;;;;;;6219300;23;20011;-86
2021/01/08 07:01:52;;;;;;;15.37;5.50;;;2.90;93.60;;;;;;6246301;23;20396;-86
2021/01/08 07:05:02;;;;;;;11.40;5.57;;;2.90;93.50;;;;;;6218792;23;20004;-86
2021/01/08 07:08:09;;;;;;;13.73;5.97;;;2.80;93.40;;;;;;6218276;23;20423;-85
2021/01/08 07:11:33;;;;;;;12.93;6.30;;;2.90;93.40;;;;;;6215844;23;20384;-86
2021/01/08 07:15:15;;;;;;;11.97;5.30;;;2.90;93.40;;;;;;6122785;23;20002;-85
2021/01/08 07:18:03;;;;;;;11.70;5.53;;;2.90;93.30;;;;;;5991545;23;20062;-86
2021/01/08 07:21:53;;;;;;;9.80;5.57;;;2.90;93.60;;;;;;6037519;23;20037;-86
2021/01/08 07:24:39;;;;;;;10.67;5.40;;;2.90;93.70;;;;;;6122490;23;20014;-85
2021/01/08 07:27:25;;;;;;;11.93;6.37;;;2.90;93.50;;;;;;6125773;23;20014;-86
2021/01/08 07:29:52;;;;;;;11.27;5.90;;;2.90;93.40;;;;;;6220219;23;20010;-85
2021/01/08 07:32:39;;;;;;;11.33;6.43;;;2.90;93.40;;;;;;6220178;23;20000;-86
2021/01/08 07:35:32;;;;;;;14.13;6.53;;;2.90;93.70;;;;;;6246952;22;20024;-85
2021/01/08 07:38:17;;;;;;;11.37;6.37;;;2.90;93.60;;;;;;6220069;23;20000;-86
2021/01/08 07:40:49;;;;;;;14.30;6.90;;;2.90;93.50;;;;;;6220121;23;20095;-86
2021/01/08 07:43:15;;;;;;;13.20;7.27;;;2.90;93.70;;;;;;6221021;23;20015;-85
2021/01/08 07:45:55;;;;;;;14.57;7.13;;;2.90;93.60;;;;;;6221046;23;20032;-86
2021/01/08 07:48:49;;;;;;;16.37;7.33;;;2.80;93.60;;;;;;6227401;22;20027;-86
2021/01/08 07:51:14;;;;;;;14.63;7.50;;;2.90;93.70;;;;;;6221790;23;20012;-85
2021/01/08 07:53:43;;;;;;;15.40;7.20;;;2.80;93.80;;;;;;6252718;23;20070;-85
2021/01/08 07:56:22;;;;;;;15.77;7.20;;;2.80;93.90;;;;;;6225853;23;20011;-85
2021/01/08 07:59:09;;;;;;;19.90;7.77;;;2.80;93.90;;;;;;6225447;23;20004;-85
2021/01/08 08:01:36;;;;;;;15.33;7.70;;;2.90;94.00;;;;;;6251679;23;20004;-85
2021/01/08 08:04:09;;;;;;;14.93;7.57;;;2.90;94.10;;;;;;6224391;23;20004;-85
2021/01/08 08:06:39;;;;;;;18.37;7.80;;;2.90;93.90;;;;;;6220097;23;20326;-85
2021/01/08 08:09:07;;;;;;;12.87;6.90;;;2.90;93.90;;;;;;6220077;23;20011;-85
2021/01/08 08:11:37;;;;;;;12.93;6.80;;;2.80;93.70;;;;;;6220038;23;20007;-85
2021/01/08 08:14:12;;;;;;;13.90;7.00;;;2.90;94.00;;;;;;6247140;23;20027;-85
2021/01/08 08:16:40;;;;;;;12.67;6.53;;;2.90;93.90;;;;;;6246817;22;19996;-85
2021/01/08 08:19:07;;;;;;;12.50;6.70;;;2.90;93.80;;;;;;6220215;23;20451;-85
2021/01/08 08:21:33;;;;;;;12.40;6.37;;;2.90;93.90;;;;;;6220291;23;20015;-85
2021/01/08 08:24:00;;;;;;;14.90;6.40;;;2.90;93.60;;;;;;6220099;23;20035;-85
2021/01/08 08:26:27;;;;;;;16.07;6.87;;;2.90;94.00;;;;;;6220136;23;20324;-85
2021/01/08 08:29:16;;;;;;;13.27;6.37;;;2.90;93.60;;;;;;6219758;23;20035;-85
2021/01/08 08:31:47;;;;;;;13.30;5.65;;;2.90;93.80;;;;;;6219832;23;20008;-85
2021/01/08 08:34:29;;;;;;;12.60;5.80;;;2.80;94.20;;;;;;6219924;23;20000;-85
2021/01/08 08:37:08;;;;;;;13.73;6.30;;;2.80;94.10;;;;;;6247025;23;20050;-85
2021/01/08 08:39:33;;;;;;;13.70;5.37;;;2.90;94.00;;;;;;6219675;23;20435;-85
2021/01/08 08:41:59;;;;;;;14.77;6.17;;;2.90;93.90;;;;;;6219789;23;20238;-85
2021/01/08 08:44:25;;;;;;;14.17;6.43;;;2.90;93.80;;;;;;6222622;23;20011;-85
2021/01/08 08:46:55;;;;;;;14.37;6.23;;;2.90;93.70;;;;;;6255368;22;20461;-85
2021/01/08 08:49:25;;;;;;;11.80;5.87;;;2.90;93.90;;;;;;6228372;23;20371;-85
2021/01/08 08:51:54;;;;;;;10.43;5.30;;;2.80;94.00;;;;;;6249051;23;20008;-85
2021/01/08 08:54:23;;;;;;;13.73;6.18;;;2.90;94.00;;;;;;6219902;23;20074;-85
2021/01/08 08:56:50;;;;;;;12.30;5.83;;;2.90;93.90;;;;;;6219768;23;20142;-85
2021/01/08 08:59:34;;;;;;;11.17;5.97;;;2.90;93.70;;;;;;6219789;23;20004;-85
2021/01/08 09:02:00;;;;;;;12.43;5.30;;;2.90;93.80;;;;;;6219850;23;20000;-85
2021/01/08 09:04:25;;;;;;;9.67;5.33;;;3.00;93.80;;;;;;6219930;23;20012;-85
2021/01/08 09:06:56;;;;;;;11.77;5.93;;;3.00;94.10;;;;;;6220010;23;20015;-85
2021/01/08 09:09:26;;;;;;;10.40;5.70;;;3.00;93.80;;;;;;6246410;23;20071;-85
2021/01/08 09:12:14;;;;;;;11.27;6.25;;;3.00;93.70;;;;;;6219436;23;20015;-85
2021/01/08 09:14:43;;;;;;;13.53;6.63;;;3.00;93.50;;;;;;6246446;22;20004;-85
2021/01/08 09:17:19;;;;;;;13.35;6.63;;;3.10;93.60;;;;;;6219603;23;20004;-86
2021/01/08 09:19:58;;;;;;;15.70;7.30;;;3.10;93.60;;;;;;6219535;23;20334;-85
2021/01/08 09:22:27;;;;;;;13.40;7.15;;;3.10;93.30;;;;;;6219704;23;20004;-85
2021/01/08 09:24:58;;;;;;;16.03;8.03;;;3.10;93.70;;;;;;6219097;23;20004;-85
2021/01/08 09:27:24;;;;;;;14.30;7.30;;;3.10;93.50;;;;;;6219354;23;19996;-85
2021/01/08 09:29:50;;;;;;;12.03;7.33;;;3.10;93.20;;;;;;6219282;23;20031;-85
2021/01/08 09:32:33;;;;;;;13.33;6.77;;;3.00;93.70;;;;;;6246310;23;20008;-85
2021/01/08 09:35:09;;;;;;;16.43;7.83;;;3.10;93.10;;;;;;6219368;23;20066;-85
2021/01/08 09:37:47;;;;;;;12.37;6.70;;;3.10;93.30;;;;;;6246186;23;20062;-85
2021/01/08 09:40:16;;;;;;;12.20;6.33;;;3.10;93.40;;;;;;6219172;23;20341;-85
2021/01/08 09:42:43;;;;;;;11.00;5.55;;;3.20;93.40;;;;;;6219415;23;20079;-85
2021/01/08 09:45:24;;;;;;;10.70;4.90;;;3.20;93.20;;;;;;6219465;23;20007;-85
2021/01/08 09:47:51;;;;;;;13.60;4.93;;;3.10;92.60;;;;;;6219649;23;20326;-85
2021/01/08 09:50:29;;;;;;;8.30;3.83;;;3.10;92.60;;;;;;6219636;23;20386;-85
2021/01/08 09:52:58;;;;;;;9.70;4.10;;;3.10;92.90;;;;;;6246302;23;20030;-85
2021/01/08 09:55:31;;;;;;;8.55;4.03;;;3.10;92.90;;;;;;6219219;23;20054;-85
2021/01/08 09:57:58;;;;;;;7.33;3.93;;;3.20;93.00;;;;;;6219194;23;20025;-85
2021/01/08 10:00:33;;;;;;;8.10;3.87;;;3.20;93.10;;;;;;6246170;23;20008;-85
2021/01/08 10:02:58;;;;;;;11.23;4.30;;;3.10;92.70;;;;;;6219368;23;20004;-85
2021/01/08 10:05:36;;;;;;;8.90;3.90;;;3.20;92.60;;;;;;6246114;22;20000;-85
2021/01/08 10:08:04;;;;;;;7.77;3.87;;;3.20;93.00;;;;;;6245983;23;20000;-85
2021/01/08 10:10:29;;;;;;;9.70;3.73;;;3.20;92.90;;;;;;6219017;23;20427;-85
2021/01/08 10:12:57;;;;;;;6.30;3.60;;;3.20;92.70;;;;;;6246202;23;20000;-85
2021/01/08 10:15:46;;;;;;;7.70;3.50;;;3.20;92.80;;;;;;6218975;23;20000;-85
2021/01/08 10:18:23;;;;;;;8.43;3.90;;;3.20;92.30;;;;;;6219414;23;20004;-85
2021/01/08 10:21:03;;;;;;;6.73;3.47;;;3.10;92.60;;;;;;6219134;23;20011;-85
2021/01/08 10:23:28;;;;;;;;;;;3.20;92.70;;;;;;6220076;23;20015;-85
2021/01/08 10:26:08;;;;;;;7.77;3.90;;;3.20;92.60;;;;;;6245847;22;19907;-85
2021/01/08 10:28:55;;;;;;;8.40;3.77;;;3.20;92.70;;;;;;6218633;23;20008;-85
2021/01/08 10:31:24;;;;;;;6.43;3.77;;;3.30;92.70;;;;;;6245056;23;20000;-85
2021/01/08 10:33:51;;;;;;;9.48;4.20;;;3.20;92.60;;;;;;6218462;23;20011;-85
2021/01/08 10:36:16;;;;;;;7.73;3.83;;;3.30;92.80;;;;;;6245325;22;20004;-85
2021/01/08 10:38:43;;;;;;;7.93;3.70;;;3.30;92.70;;;;;;6218490;23;20028;-84
2021/01/08 10:41:09;;;;;;;8.20;3.77;;;3.30;92.60;;;;;;6229225;23;20077;-85
2021/01/08 10:43:34;;;;;;;6.57;3.90;;;3.30;92.70;;;;;;6231493;23;20423;-86
2021/01/08 10:46:04;;;;;;;7.60;4.50;;;3.30;92.70;;;;;;6231765;23;20031;-87
2021/01/08 10:48:30;;;;;;;6.85;3.78;;;3.30;92.80;;;;;;6232418;23;20004;-87
2021/01/08 10:50:57;;;;;;;7.90;4.13;;;3.30;92.60;;;;;;6258805;23;20004;-85
2021/01/08 10:53:23;;;;;;;9.90;4.83;;;3.40;92.60;;;;;;6233594;23;20283;-86
2021/01/08 10:55:49;;;;;;;10.37;4.00;;;3.30;92.50;;;;;;6261624;22;20459;-86
2021/01/08 10:58:16;;;;;;;12.93;4.53;;;3.40;92.50;;;;;;6235667;23;20000;-86
2021/01/08 11:00:46;;;;;;;12.40;4.37;;;3.40;92.70;;;;;;6236964;23;20509;-85
2021/01/08 11:03:12;;;;;;;10.73;4.37;;;3.30;92.30;;;;;;6245391;23;20010;-87
2021/01/08 11:05:41;;;;;;;8.50;4.10;;;3.30;92.30;;;;;;6245286;23;20004;-85
2021/01/08 11:08:07;;;;;;;8.43;4.00;;;3.10;92.50;;;;;;6270186;23;20050;-85
2021/01/08 11:10:37;;;;;;;9.40;5.00;;;3.20;93.20;;;;;;6243264;23;20004;-85
2021/01/08 11:13:03;;;;;;;;;;;3.30;92.80;;;;;;6240347;23;20003;-85
2021/01/08 11:15:29;;;;;;;6.63;3.37;;;3.30;92.60;;;;;;6238831;23;19904;-85
2021/01/08 11:17:54;;;;;;;6.13;3.50;;;3.30;92.40;;;;;;6232036;23;20452;-85
2021/01/08 11:20:20;;;;;;;7.37;3.70;;;3.30;92.30;;;;;;6231254;23;20015;-85
2021/01/08 11:22:46;;;;;;;6.37;3.43;;;3.30;92.70;;;;;;6231518;23;20343;-86
2021/01/08 11:25:13;;;;;;;7.47;3.60;;;3.30;92.60;;;;;;6237006;22;20106;-81
2021/01/08 11:27:39;;;;;;;13.37;4.87;;;3.40;92.60;;;;;;6282991;22;20014;-81
2021/01/08 11:30:06;;;;;;;10.53;4.30;;;3.40;92.70;;;;;;6310054;22;19996;-82
2021/01/08 11:32:32;;;;;;;7.47;3.93;;;3.40;92.60;;;;;;6310795;22;20070;-81
2021/01/08 11:34:57;;;;;;;9.33;3.57;;;3.40;92.50;;;;;;6308381;22;20006;-82
2021/01/08 11:37:23;;;;;;;7.20;3.50;;;3.40;92.20;;;;;;6279688;22;20418;-82
2021/01/08 11:39:49;;;;;;;8.63;3.37;;;3.40;92.40;;;;;;6252083;22;19999;-82
2021/01/08 11:42:17;;;;;;;7.27;3.47;;;3.40;92.30;;;;;;6280048;22;20330;-82
2021/01/08 11:44:43;;;;;;;8.35;3.65;;;3.40;92.40;;;;;;6280458;22;20004;-82
2021/01/08 11:47:09;;;;;;;7.30;3.90;;;3.50;92.50;;;;;;6285043;22;20007;-81
2021/01/08 11:49:34;;;;;;;8.13;3.80;;;3.50;92.80;;;;;;6291705;22;20006;-80
2021/01/08 11:52:00;;;;;;;7.03;4.10;;;3.50;92.60;;;;;;6291475;22;20020;-81
2021/01/08 11:54:26;;;;;;;5.97;3.30;;;3.50;92.50;;;;;;6259430;22;20443;-81
2021/01/08 11:56:51;;;;;;;6.93;3.40;;;3.50;92.10;;;;;;6280400;22;20426;-80
2021/01/08 11:59:17;;;;;;;6.93;3.60;;;3.50;92.30;;;;;;6278015;22;20003;-81
2021/01/08 12:01:43;;;;;;;7.07;4.20;;;3.50;92.40;;;;;;6250864;22;20319;-81
2021/01/08 12:04:10;;;;;;;10.03;4.47;;;3.50;92.20;;;;;;6277720;22;20007;-81
2021/01/08 12:06:35;;;;;;;7.43;4.03;;;3.40;92.10;;;;;;6277262;22;20074;-80
2021/01/08 12:09:02;;;;;;;7.73;3.40;;;3.40;92.00;;;;;;6276946;22;20430;-80
2021/01/08 12:11:27;;;;;;;7.13;3.27;;;3.40;91.30;;;;;;6277387;22;20333;-81
2021/01/08 12:13:53;;;;;;;4.90;2.70;;;3.30;91.60;;;;;;6251086;22;20037;-82
2021/01/08 12:16:26;;;;;;;5.87;2.80;;;3.40;91.80;;;;;;6250333;22;20000;-81
2021/01/08 12:18:53;;;;;;;5.17;2.70;;;3.40;91.50;;;;;;6277181;22;20311;-80
2021/01/08 12:21:19;;;;;;;7.20;2.80;;;3.40;91.90;;;;;;6277472;22;20030;-81
2021/01/08 12:23:45;;;;;;;7.23;2.87;;;3.40;91.90;;;;;;6276948;22;20338;-80
2021/01/08 12:26:18;;;;;;;5.40;2.80;;;3.40;91.80;;;;;;6276833;22;20007;-80
2021/01/08 12:28:44;;;;;;;6.13;2.63;;;3.50;91.60;;;;;;6276563;22;20045;-79
2021/01/08 12:31:10;;;;;;;6.33;2.40;;;3.50;91.40;;;;;;6276027;22;20052;-80
2021/01/08 12:33:36;;;;;;;5.03;2.40;;;3.50;91.40;;;;;;6276855;22;20011;-79
2021/01/08 12:36:02;;;;;;;4.77;2.30;;;3.50;91.60;;;;;;6276746;22;20066;-80
2021/01/08 12:38:28;;;;;;;9.60;2.83;;;3.60;91.60;;;;;;6276636;22;19999;-79
2021/01/08 12:40:54;;;;;;;4.43;2.30;;;3.50;91.30;;;;;;6249110;22;20004;-79
2021/01/08 12:43:22;;;;;;;3.50;2.10;;;3.50;90.80;;;;;;6249383;22;20004;-80
2021/01/08 12:45:47;;;;;;;5.20;2.60;;;3.50;91.20;;;;;;6249366;22;20062;-80
2021/01/08 12:48:13;;;;;;;5.47;2.40;;;3.50;90.90;;;;;;6249472;22;20003;-79
2021/01/08 12:50:39;;;;;;;3.93;2.33;;;3.40;91.50;;;;;;6248717;22;20015;-79
2021/01/08 12:53:04;;;;;;;6.17;2.93;;;3.40;91.20;;;;;;6276469;22;19995;-79
2021/01/08 12:55:30;;;;;;;8.17;3.57;;;3.40;91.60;;;;;;6249721;22;20027;-79
2021/01/08 12:57:55;;;;;;;7.40;3.30;;;3.40;91.70;;;;;;6249434;22;19999;-79